sensor_id;sensor_type;location;lat;lon;timestamp;pressure;altitude;pressure_sealevel;temperature;humidity
6435;BME280;3250;42.694;23.278;2023-06-14T00:00:10;94535.19;;;17.89;100.00
6435;BME280;3250;42.694;23.278;2023-06-14T00:02:39;94544.22;;;17.93;100.00
6435;BME280;3250;42.694;23.278;2023-06-14T00:05:05;94510.63;;;17.77;100.00
6435;BME280;3250;42.694;23.278;2023-06-14T00:07:38;94543.69;;;17.96;100.00
6435;BME280;3250;42.694;23.278;2023-06-14T00:10:09;94517.31;;;17.79;100.00
6435;BME280;3250;42.694;23.278;2023-06-14T00:12:35;94539.69;;;17.93;100.00
6435;BME280;3250;42.694;23.278;2023-06-14T00:15:01;94519.72;;;17.81;100.00
6435;BME280;3250;42.694;23.278;2023-06-14T00:17:27;94518.63;;;17.82;100.00
6435;BME280;3250;42.694;23.278;2023-06-14T00:19:59;94535.16;;;17.94;100.00
6435;BME280;3250;42.694;23.278;2023-06-14T00:22:25;94541.56;;;17.93;100.00
6435;BME280;3250;42.694;23.278;2023-06-14T00:24:51;94535.69;;;17.91;100.00
6435;BME280;3250;42.694;23.278;2023-06-14T00:27:17;94512.78;;;17.85;100.00
6435;BME280;3250;42.694;23.278;2023-06-14T00:29:42;94537.84;;;17.94;100.00
6435;BME280;3250;42.694;23.278;2023-06-14T00:32:08;94523.97;;;17.92;100.00
6435;BME280;3250;42.694;23.278;2023-06-14T00:34:34;94486.41;;;17.63;100.00
6435;BME280;3250;42.694;23.278;2023-06-14T00:37:00;94519.44;;;17.82;100.00
6435;BME280;3250;42.694;23.278;2023-06-14T00:39:25;94517.03;;;17.86;100.00
6435;BME280;3250;42.694;23.278;2023-06-14T00:41:51;94511.19;;;17.84;100.00
6435;BME280;3250;42.694;23.278;2023-06-14T00:44:17;94486.94;;;17.70;100.00
6435;BME280;3250;42.694;23.278;2023-06-14T00:46:44;94506.41;;;17.81;100.00
6435;BME280;3250;42.694;23.278;2023-06-14T00:49:12;94500.25;;;17.75;100.00
6435;BME280;3250;42.694;23.278;2023-06-14T00:51:41;94520.25;;;17.88;100.00
6435;BME280;3250;42.694;23.278;2023-06-14T00:54:06;94503.97;;;17.74;100.00
6435;BME280;3250;42.694;23.278;2023-06-14T00:56:32;94507.47;;;17.80;100.00
6435;BME280;3250;42.694;23.278;2023-06-14T00:58:57;94513.06;;;17.88;100.00
6435;BME280;3250;42.694;23.278;2023-06-14T01:01:23;94495.19;;;17.73;100.00
6435;BME280;3250;42.694;23.278;2023-06-14T01:03:49;94488.00;;;17.74;100.00
6435;BME280;3250;42.694;23.278;2023-06-14T01:09:07;94513.59;;;17.90;100.00
6435;BME280;3250;42.694;23.278;2023-06-14T01:11:43;94517.34;;;17.89;100.00
6435;BME280;3250;42.694;23.278;2023-06-14T01:14:11;94489.84;;;17.73;100.00
6435;BME280;3250;42.694;23.278;2023-06-14T01:16:38;94515.72;;;17.88;100.00
6435;BME280;3250;42.694;23.278;2023-06-14T01:19:05;94477.34;;;17.64;100.00
6435;BME280;3250;42.694;23.278;2023-06-14T01:21:31;94514.38;;;17.91;100.00
6435;BME280;3250;42.694;23.278;2023-06-14T01:24:06;94498.69;;;17.89;100.00
6435;BME280;3250;42.694;23.278;2023-06-14T01:26:32;94509.06;;;17.91;100.00
6435;BME280;3250;42.694;23.278;2023-06-14T01:28:58;94484.81;;;17.72;100.00
6435;BME280;3250;42.694;23.278;2023-06-14T01:31:24;94459.72;;;17.58;100.00
6435;BME280;3250;42.694;23.278;2023-06-14T01:33:51;94506.41;;;17.81;100.00
6435;BME280;3250;42.694;23.278;2023-06-14T01:36:18;94462.94;;;17.55;100.00
6435;BME280;3250;42.694;23.278;2023-06-14T01:38:46;94495.47;;;17.77;100.00
6435;BME280;3250;42.694;23.278;2023-06-14T01:41:14;94466.91;;;17.52;100.00
6435;BME280;3250;42.694;23.278;2023-06-14T01:43:41;94479.16;;;17.53;100.00
6435;BME280;3250;42.694;23.278;2023-06-14T01:46:08;94513.56;;;17.70;100.00
6435;BME280;3250;42.694;23.278;2023-06-14T01:48:34;94495.94;;;17.59;100.00
6435;BME280;3250;42.694;23.278;2023-06-14T01:51:00;94502.88;;;17.65;100.00
6435;BME280;3250;42.694;23.278;2023-06-14T01:53:25;94483.38;;;17.49;100.00
6435;BME280;3250;42.694;23.278;2023-06-14T01:55:50;94463.94;;;17.39;100.00
6435;BME280;3250;42.694;23.278;2023-06-14T01:58:19;94505.84;;;17.63;100.00
6435;BME280;3250;42.694;23.278;2023-06-14T02:00:44;94510.91;;;17.70;100.00
6435;BME280;3250;42.694;23.278;2023-06-14T02:03:11;94516.47;;;17.73;100.00
6435;BME280;3250;42.694;23.278;2023-06-14T02:05:37;94509.56;;;17.67;100.00
6435;BME280;3250;42.694;23.278;2023-06-14T02:08:04;94484.75;;;17.52;100.00
6435;BME280;3250;42.694;23.278;2023-06-14T02:10:29;94486.59;;;17.51;100.00
6435;BME280;3250;42.694;23.278;2023-06-14T02:12:55;94509.56;;;17.62;100.00
6435;BME280;3250;42.694;23.278;2023-06-14T02:15:20;94530.88;;;17.73;100.00
6435;BME280;3250;42.694;23.278;2023-06-14T02:17:47;94545.25;;;17.82;100.00
6435;BME280;3250;42.694;23.278;2023-06-14T02:20:14;94503.66;;;17.60;100.00
6435;BME280;3250;42.694;23.278;2023-06-14T02:22:39;94545.78;;;17.84;100.00
6435;BME280;3250;42.694;23.278;2023-06-14T02:25:05;94550.59;;;17.82;100.00
6435;BME280;3250;42.694;23.278;2023-06-14T02:27:31;94517.47;;;17.52;100.00
6435;BME280;3250;42.694;23.278;2023-06-14T02:29:57;94505.50;;;17.50;100.00
6435;BME280;3250;42.694;23.278;2023-06-14T02:32:22;94540.44;;;17.68;100.00
6435;BME280;3250;42.694;23.278;2023-06-14T02:34:48;94545.25;;;17.71;100.00
6435;BME280;3250;42.694;23.278;2023-06-14T02:37:15;94541.53;;;17.73;100.00
6435;BME280;3250;42.694;23.278;2023-06-14T02:39:41;94486.56;;;17.41;100.00
6435;BME280;3250;42.694;23.278;2023-06-14T02:42:07;94514.81;;;17.57;100.00
6435;BME280;3250;42.694;23.278;2023-06-14T02:44:32;94542.31;;;17.73;100.00
6435;BME280;3250;42.694;23.278;2023-06-14T02:46:57;94527.38;;;17.62;100.00
6435;BME280;3250;42.694;23.278;2023-06-14T02:49:23;94544.97;;;17.73;100.00
6435;BME280;3250;42.694;23.278;2023-06-14T02:51:49;94526.84;;;17.65;100.00
6435;BME280;3250;42.694;23.278;2023-06-14T02:54:14;94488.97;;;17.43;100.00
6435;BME280;3250;42.694;23.278;2023-06-14T02:56:40;94537.69;;;17.43;100.00
6435;BME280;3250;42.694;23.278;2023-06-14T02:59:06;94529.34;;;17.24;100.00
6435;BME280;3250;42.694;23.278;2023-06-14T03:01:32;94528.59;;;17.29;100.00
6435;BME280;3250;42.694;23.278;2023-06-14T03:04:06;94547.28;;;17.49;100.00
6435;BME280;3250;42.694;23.278;2023-06-14T03:06:32;94496.31;;;17.15;100.00
6435;BME280;3250;42.694;23.278;2023-06-14T03:08:58;94554.75;;;17.52;100.00
6435;BME280;3250;42.694;23.278;2023-06-14T03:11:25;94521.41;;;17.29;100.00
6435;BME280;3250;42.694;23.278;2023-06-14T03:13:52;94564.66;;;17.62;100.00
6435;BME280;3250;42.694;23.278;2023-06-14T03:16:32;94552.88;;;17.58;100.00
6435;BME280;3250;42.694;23.278;2023-06-14T03:18:58;94514.75;;;17.32;100.00
6435;BME280;3250;42.694;23.278;2023-06-14T03:21:23;94535.03;;;17.48;100.00
6435;BME280;3250;42.694;23.278;2023-06-14T03:23:48;94532.91;;;17.50;100.00
6435;BME280;3250;42.694;23.278;2023-06-14T03:26:15;94539.03;;;17.56;100.00
6435;BME280;3250;42.694;23.278;2023-06-14T03:28:46;94563.59;;;17.73;100.00
6435;BME280;3250;42.694;23.278;2023-06-14T03:31:13;94568.97;;;17.78;100.00
6435;BME280;3250;42.694;23.278;2023-06-14T03:33:39;94578.53;;;17.74;100.00
6435;BME280;3250;42.694;23.278;2023-06-14T03:36:05;94553.44;;;17.60;100.00
6435;BME280;3250;42.694;23.278;2023-06-14T03:38:32;94550.81;;;17.65;100.00
6435;BME280;3250;42.694;23.278;2023-06-14T03:40:57;94558.28;;;17.63;100.00
6435;BME280;3250;42.694;23.278;2023-06-14T03:43:22;94560.69;;;17.69;100.00
6435;BME280;3250;42.694;23.278;2023-06-14T03:45:48;94530.00;;;17.57;100.00
6435;BME280;3250;42.694;23.278;2023-06-14T03:48:13;94566.59;;;17.87;100.00
6435;BME280;3250;42.694;23.278;2023-06-14T03:50:39;94535.91;;;17.64;100.00
6435;BME280;3250;42.694;23.278;2023-06-14T03:53:04;94557.50;;;17.78;100.00
6435;BME280;3250;42.694;23.278;2023-06-14T03:55:30;94569.25;;;17.87;100.00
6435;BME280;3250;42.694;23.278;2023-06-14T03:57:57;94552.69;;;17.69;100.00
6435;BME280;3250;42.694;23.278;2023-06-14T04:00:22;94558.56;;;17.77;100.00
6435;BME280;3250;42.694;23.278;2023-06-14T04:02:48;94579.66;;;17.88;100.00
6435;BME280;3250;42.694;23.278;2023-06-14T04:05:14;94580.16;;;17.90;100.00
6435;BME280;3250;42.694;23.278;2023-06-14T04:07:45;94579.38;;;17.90;100.00
6435;BME280;3250;42.694;23.278;2023-06-14T04:10:12;94539.13;;;17.71;100.00
6435;BME280;3250;42.694;23.278;2023-06-14T04:12:38;94539.94;;;17.71;100.00
6435;BME280;3250;42.694;23.278;2023-06-14T04:15:04;94554.88;;;17.93;100.00
6435;BME280;3250;42.694;23.278;2023-06-14T04:17:31;94543.16;;;17.89;100.00
6435;BME280;3250;42.694;23.278;2023-06-14T04:20:02;94528.50;;;17.91;100.00
6435;BME280;3250;42.694;23.278;2023-06-14T04:22:29;94511.19;;;17.94;100.00
6435;BME280;3250;42.694;23.278;2023-06-14T04:24:56;94498.69;;;18.04;98.88
6435;BME280;3250;42.694;23.278;2023-06-14T04:27:26;94581.59;;;18.69;98.04
6435;BME280;3250;42.694;23.278;2023-06-14T04:29:55;94580.78;;;18.78;96.25
6435;BME280;3250;42.694;23.278;2023-06-14T04:32:27;94525.88;;;18.62;95.62
6435;BME280;3250;42.694;23.278;2023-06-14T04:34:55;94579.91;;;19.29;96.08
6435;BME280;3250;42.694;23.278;2023-06-14T04:37:24;94581.16;;;19.46;94.21
6435;BME280;3250;42.694;23.278;2023-06-14T04:39:50;94563.84;;;19.49;92.84
6435;BME280;3250;42.694;23.278;2023-06-14T04:42:16;94560.88;;;19.61;91.32
6435;BME280;3250;42.694;23.278;2023-06-14T04:44:45;94557.84;;;19.77;90.32
6435;BME280;3250;42.694;23.278;2023-06-14T04:47:12;94586.19;;;20.17;91.71
6435;BME280;3250;42.694;23.278;2023-06-14T04:49:39;94587.38;;;20.45;90.71
6435;BME280;3250;42.694;23.278;2023-06-14T04:52:06;94592.78;;;20.74;89.93
6435;BME280;3250;42.694;23.278;2023-06-14T04:54:32;94579.88;;;20.81;88.32
6435;BME280;3250;42.694;23.278;2023-06-14T04:56:59;94551.13;;;20.63;85.51
6435;BME280;3250;42.694;23.278;2023-06-14T04:59:24;94585.41;;;20.90;85.26
6435;BME280;3250;42.694;23.278;2023-06-14T05:01:51;94602.03;;;21.16;85.73
6435;BME280;3250;42.694;23.278;2023-06-14T05:04:17;94561.09;;;20.86;82.64
6435;BME280;3250;42.694;23.278;2023-06-14T05:06:44;94610.63;;;21.18;83.44
6435;BME280;3250;42.694;23.278;2023-06-14T05:09:20;94613.56;;;21.16;83.96
6435;BME280;3250;42.694;23.278;2023-06-14T05:11:45;94585.69;;;20.88;82.61
6435;BME280;3250;42.694;23.278;2023-06-14T05:14:11;94600.69;;;20.89;81.34
6435;BME280;3250;42.694;23.278;2023-06-14T05:16:36;94594.25;;;20.90;83.46
6435;BME280;3250;42.694;23.278;2023-06-14T05:19:03;94604.16;;;20.90;82.58
6435;BME280;3250;42.694;23.278;2023-06-14T05:21:29;94621.81;;;20.91;82.12
6435;BME280;3250;42.694;23.278;2023-06-14T05:23:55;94590.91;;;20.75;83.40
6435;BME280;3250;42.694;23.278;2023-06-14T05:26:21;94631.56;;;21.05;84.38
6435;BME280;3250;42.694;23.278;2023-06-14T05:28:48;94600.63;;;20.94;84.12
6435;BME280;3250;42.694;23.278;2023-06-14T05:31:15;94636.59;;;21.12;83.67
6435;BME280;3250;42.694;23.278;2023-06-14T05:33:40;94639.28;;;21.12;83.43
6435;BME280;3250;42.694;23.278;2023-06-14T05:36:06;94612.19;;;20.90;82.96
6435;BME280;3250;42.694;23.278;2023-06-14T05:38:31;94629.78;;;20.96;84.00
6435;BME280;3250;42.694;23.278;2023-06-14T05:40:57;94628.25;;;20.90;84.75
6435;BME280;3250;42.694;23.278;2023-06-14T05:43:22;94636.28;;;20.85;84.33
6435;BME280;3250;42.694;23.278;2023-06-14T05:45:48;94593.50;;;20.51;84.11
6435;BME280;3250;42.694;23.278;2023-06-14T05:48:13;94638.50;;;20.78;85.53
6435;BME280;3250;42.694;23.278;2023-06-14T05:50:38;94608.94;;;20.59;86.24
6435;BME280;3250;42.694;23.278;2023-06-14T05:53:04;94605.19;;;20.60;85.24
6435;BME280;3250;42.694;23.278;2023-06-14T05:55:29;94595.66;;;20.49;84.72
6435;BME280;3250;42.694;23.278;2023-06-14T05:57:55;94518.44;;;19.98;85.94
6435;BME280;3250;42.694;23.278;2023-06-14T06:00:20;94647.06;;;20.80;86.31
6435;BME280;3250;42.694;23.278;2023-06-14T06:02:46;94634.88;;;20.63;85.26
6435;BME280;3250;42.694;23.278;2023-06-14T06:05:13;94611.72;;;20.49;86.77
6435;BME280;3250;42.694;23.278;2023-06-14T06:07:39;94653.28;;;20.70;87.12
6435;BME280;3250;42.694;23.278;2023-06-14T06:10:08;94632.50;;;20.57;86.67
6435;BME280;3250;42.694;23.278;2023-06-14T06:12:33;94647.41;;;20.68;88.28
6435;BME280;3250;42.694;23.278;2023-06-14T06:14:59;94653.28;;;20.70;87.80
6435;BME280;3250;42.694;23.278;2023-06-14T06:17:25;94648.78;;;20.65;86.88
6435;BME280;3250;42.694;23.278;2023-06-14T06:19:51;94654.88;;;20.71;86.46
6435;BME280;3250;42.694;23.278;2023-06-14T06:22:16;94604.56;;;20.34;86.37
6435;BME280;3250;42.694;23.278;2023-06-14T06:24:42;94640.81;;;20.50;86.95
6435;BME280;3250;42.694;23.278;2023-06-14T06:27:07;94659.75;;;20.59;87.26
6435;BME280;3250;42.694;23.278;2023-06-14T06:29:33;94650.97;;;20.53;87.82
6435;BME280;3250;42.694;23.278;2023-06-14T06:31:59;94648.31;;;20.53;87.66
6435;BME280;3250;42.694;23.278;2023-06-14T06:34:24;94657.94;;;20.54;87.53
6435;BME280;3250;42.694;23.278;2023-06-14T06:36:50;94641.72;;;20.41;87.74
6435;BME280;3250;42.694;23.278;2023-06-14T06:39:15;94646.19;;;20.50;88.90
6435;BME280;3250;42.694;23.278;2023-06-14T06:41:41;94664.25;;;20.68;88.33
6435;BME280;3250;42.694;23.278;2023-06-14T06:44:06;94663.97;;;20.75;87.64
6435;BME280;3250;42.694;23.278;2023-06-14T06:46:33;94625.25;;;20.62;88.04
6435;BME280;3250;42.694;23.278;2023-06-14T06:49:00;94637.94;;;20.81;88.48
6435;BME280;3250;42.694;23.278;2023-06-14T06:51:25;94627.03;;;20.72;85.35
6435;BME280;3250;42.694;23.278;2023-06-14T06:53:54;94656.56;;;20.96;83.84
6435;BME280;3250;42.694;23.278;2023-06-14T06:56:21;94663.50;;;20.97;84.05
6435;BME280;3250;42.694;23.278;2023-06-14T06:58:49;94637.47;;;21.36;86.94
6435;BME280;3250;42.694;23.278;2023-06-14T07:01:15;94635.69;;;22.03;84.16
6435;BME280;3250;42.694;23.278;2023-06-14T07:03:41;94641.59;;;22.80;81.95
6435;BME280;3250;42.694;23.278;2023-06-14T07:06:06;94667.13;;;23.75;75.45
6435;BME280;3250;42.694;23.278;2023-06-14T07:08:32;94671.59;;;24.07;74.09
6435;BME280;3250;42.694;23.278;2023-06-14T07:10:57;94638.72;;;23.96;73.01
6435;BME280;3250;42.694;23.278;2023-06-14T07:13:23;94607.09;;;23.52;70.43
6435;BME280;3250;42.694;23.278;2023-06-14T07:15:48;94680.75;;;23.65;71.21
6435;BME280;3250;42.694;23.278;2023-06-14T07:18:13;94656.22;;;23.53;73.76
6435;BME280;3250;42.694;23.278;2023-06-14T07:20:39;94668.81;;;23.85;73.99
6435;BME280;3250;42.694;23.278;2023-06-14T07:23:05;94655.97;;;24.09;73.86
6435;BME280;3250;42.694;23.278;2023-06-14T07:25:31;94665.25;;;24.66;73.34
6435;BME280;3250;42.694;23.278;2023-06-14T07:27:56;94625.22;;;24.51;69.60
6435;BME280;3250;42.694;23.278;2023-06-14T07:30:22;94644.94;;;24.60;67.39
6435;BME280;3250;42.694;23.278;2023-06-14T07:32:51;94647.78;;;24.41;67.00
6435;BME280;3250;42.694;23.278;2023-06-14T07:35:17;94641.94;;;24.12;68.62
6435;BME280;3250;42.694;23.278;2023-06-14T07:37:43;94605.28;;;23.61;68.97
6435;BME280;3250;42.694;23.278;2023-06-14T07:40:10;94629.22;;;23.44;71.31
6435;BME280;3250;42.694;23.278;2023-06-14T07:42:35;94658.97;;;23.34;71.71
6435;BME280;3250;42.694;23.278;2023-06-14T07:45:02;94630.38;;;22.92;72.64
6435;BME280;3250;42.694;23.278;2023-06-14T07:47:27;94647.81;;;22.76;72.83
6435;BME280;3250;42.694;23.278;2023-06-14T07:49:53;94617.94;;;22.45;73.71
6435;BME280;3250;42.694;23.278;2023-06-14T07:52:18;94647.38;;;22.50;74.58
6435;BME280;3250;42.694;23.278;2023-06-14T07:54:44;94682.13;;;22.60;73.90
6435;BME280;3250;42.694;23.278;2023-06-14T07:57:09;94674.22;;;22.69;76.08
6435;BME280;3250;42.694;23.278;2023-06-14T07:59:35;94655.72;;;22.67;75.20
6435;BME280;3250;42.694;23.278;2023-06-14T08:02:00;94681.75;;;23.04;76.45
6435;BME280;3250;42.694;23.278;2023-06-14T08:04:26;94680.94;;;23.36;76.33
6435;BME280;3250;42.694;23.278;2023-06-14T08:06:51;94674.91;;;23.77;76.18
6435;BME280;3250;42.694;23.278;2023-06-14T08:09:17;94669.72;;;24.07;75.14
6435;BME280;3250;42.694;23.278;2023-06-14T08:11:42;94694.91;;;24.39;70.88
6435;BME280;3250;42.694;23.278;2023-06-14T08:14:08;94696.13;;;24.33;70.37
6435;BME280;3250;42.694;23.278;2023-06-14T08:17:10;94701.00;;;24.17;69.62
6435;BME280;3250;42.694;23.278;2023-06-14T08:19:35;94689.25;;;23.99;69.79
6435;BME280;3250;42.694;23.278;2023-06-14T08:22:01;94693.28;;;23.56;69.20
6435;BME280;3250;42.694;23.278;2023-06-14T08:24:27;94703.63;;;23.30;70.90
6435;BME280;3250;42.694;23.278;2023-06-14T08:26:53;94665.78;;;23.13;72.87
6435;BME280;3250;42.694;23.278;2023-06-14T08:29:18;94702.53;;;23.50;74.88
6435;BME280;3250;42.694;23.278;2023-06-14T08:31:45;94696.88;;;23.65;72.83
6435;BME280;3250;42.694;23.278;2023-06-14T08:34:10;94701.16;;;23.80;72.86
6435;BME280;3250;42.694;23.278;2023-06-14T08:36:36;94694.91;;;23.84;73.44
6435;BME280;3250;42.694;23.278;2023-06-14T08:39:01;94699.19;;;23.99;73.34
6435;BME280;3250;42.694;23.278;2023-06-14T08:41:27;94692.22;;;23.98;69.47
6435;BME280;3250;42.694;23.278;2023-06-14T08:43:55;94678.59;;;23.94;72.25
6435;BME280;3250;42.694;23.278;2023-06-14T08:46:20;94691.44;;;24.25;68.97
6435;BME280;3250;42.694;23.278;2023-06-14T08:48:51;94682.66;;;24.47;69.61
6435;BME280;3250;42.694;23.278;2023-06-14T08:51:19;94659.19;;;24.61;70.07
6435;BME280;3250;42.694;23.278;2023-06-14T08:53:52;94701.28;;;25.06;66.67
6435;BME280;3250;42.694;23.278;2023-06-14T08:56:17;94668.72;;;24.80;65.90
6435;BME280;3250;42.694;23.278;2023-06-14T08:58:44;94689.41;;;25.07;65.91
6435;BME280;3250;42.694;23.278;2023-06-14T09:01:11;94676.22;;;25.06;65.97
6435;BME280;3250;42.694;23.278;2023-06-14T09:03:41;94691.88;;;25.26;66.53
6435;BME280;3250;42.694;23.278;2023-06-14T09:06:09;94674.47;;;25.24;65.91
6435;BME280;3250;42.694;23.278;2023-06-14T09:08:43;94679.03;;;25.23;63.87
6435;BME280;3250;42.694;23.278;2023-06-14T09:11:13;94649.94;;;24.89;63.69
6435;BME280;3250;42.694;23.278;2023-06-14T09:13:39;94681.94;;;24.91;64.17
6435;BME280;3250;42.694;23.278;2023-06-14T09:16:06;94675.50;;;24.78;64.93
6435;BME280;3250;42.694;23.278;2023-06-14T09:18:42;94666.69;;;24.64;64.56
6435;BME280;3250;42.694;23.278;2023-06-14T09:21:10;94626.28;;;24.28;66.45
6435;BME280;3250;42.694;23.278;2023-06-14T09:23:37;94667.88;;;24.58;67.45
6435;BME280;3250;42.694;23.278;2023-06-14T09:28:45;94631.63;;;24.41;67.67
6435;BME280;3250;42.694;23.278;2023-06-14T09:31:16;94664.94;;;24.68;68.46
6435;BME280;3250;42.694;23.278;2023-06-14T09:33:47;94649.03;;;24.58;68.45
6435;BME280;3250;42.694;23.278;2023-06-14T09:36:23;94674.03;;;24.72;66.95
6435;BME280;3250;42.694;23.278;2023-06-14T09:41:18;94651.09;;;24.38;68.45
6435;BME280;3250;42.694;23.278;2023-06-14T09:43:45;94630.06;;;24.27;69.01
6435;BME280;3250;42.694;23.278;2023-06-14T09:46:12;94653.56;;;24.35;67.86
6435;BME280;3250;42.694;23.278;2023-06-14T09:48:38;94570.50;;;23.79;67.46
6435;BME280;3250;42.694;23.278;2023-06-14T09:51:10;94655.84;;;24.14;66.38
6435;BME280;3250;42.694;23.278;2023-06-14T09:53:36;94650.47;;;24.14;67.31
6435;BME280;3250;42.694;23.278;2023-06-14T09:56:02;94605.56;;;23.87;67.64
6435;BME280;3250;42.694;23.278;2023-06-14T09:58:30;94608.16;;;23.92;69.33
6435;BME280;3250;42.694;23.278;2023-06-14T10:00:58;94609.56;;;24.03;70.50
6435;BME280;3250;42.694;23.278;2023-06-14T10:03:28;94630.56;;;24.29;66.85
6435;BME280;3250;42.694;23.278;2023-06-14T10:05:55;94644.25;;;24.55;66.72
6435;BME280;3250;42.694;23.278;2023-06-14T10:08:23;94638.75;;;24.60;65.23
6435;BME280;3250;42.694;23.278;2023-06-14T10:10:51;94608.84;;;24.61;70.33
6435;BME280;3250;42.694;23.278;2023-06-14T10:13:17;94592.38;;;24.63;66.63
6435;BME280;3250;42.694;23.278;2023-06-14T10:15:58;94632.38;;;24.92;66.77
6435;BME280;3250;42.694;23.278;2023-06-14T10:21:18;94582.38;;;24.99;67.53
6435;BME280;3250;42.694;23.278;2023-06-14T10:23:47;94613.72;;;25.48;68.33
6435;BME280;3250;42.694;23.278;2023-06-14T10:26:21;94626.19;;;25.67;66.67
6435;BME280;3250;42.694;23.278;2023-06-14T10:29:08;94620.03;;;25.75;65.11
6435;BME280;3250;42.694;23.278;2023-06-14T10:34:07;94592.53;;;25.64;61.88
6435;BME280;3250;42.694;23.278;2023-06-14T10:36:33;94619.50;;;25.64;61.56
6435;BME280;3250;42.694;23.278;2023-06-14T10:39:16;94612.56;;;25.41;62.14
6435;BME280;3250;42.694;23.278;2023-06-14T10:41:51;94571.63;;;24.86;64.62
6435;BME280;3250;42.694;23.278;2023-06-14T10:46:46;94586.78;;;24.95;63.64
6435;BME280;3250;42.694;23.278;2023-06-14T10:49:12;94585.00;;;24.91;62.11
6435;BME280;3250;42.694;23.278;2023-06-14T10:51:42;94608.94;;;24.92;62.53
6435;BME280;3250;42.694;23.278;2023-06-14T10:54:13;94559.22;;;24.54;63.17
6435;BME280;3250;42.694;23.278;2023-06-14T10:56:46;94553.94;;;24.49;62.62
6435;BME280;3250;42.694;23.278;2023-06-14T10:59:12;94554.81;;;24.58;65.39
6435;BME280;3250;42.694;23.278;2023-06-14T11:01:56;94556.22;;;24.55;63.64
6435;BME280;3250;42.694;23.278;2023-06-14T11:04:34;94536.81;;;24.67;63.35
6435;BME280;3250;42.694;23.278;2023-06-14T11:10:15;94573.22;;;25.09;60.57
6435;BME280;3250;42.694;23.278;2023-06-14T11:12:47;94521.50;;;24.76;61.16
6435;BME280;3250;42.694;23.278;2023-06-14T11:15:15;94569.38;;;25.01;63.32
6435;BME280;3250;42.694;23.278;2023-06-14T11:17:53;94536.44;;;24.60;62.57
6435;BME280;3250;42.694;23.278;2023-06-14T11:20:19;94570.16;;;24.57;65.93
6435;BME280;3250;42.694;23.278;2023-06-14T11:22:45;94516.91;;;24.32;63.12
6435;BME280;3250;42.694;23.278;2023-06-14T11:25:15;94574.88;;;24.74;62.97
6435;BME280;3250;42.694;23.278;2023-06-14T11:27:44;94560.75;;;24.68;61.83
6435;BME280;3250;42.694;23.278;2023-06-14T11:30:10;94564.00;;;24.79;61.85
6435;BME280;3250;42.694;23.278;2023-06-14T11:32:37;94536.34;;;24.65;63.04
6435;BME280;3250;42.694;23.278;2023-06-14T11:35:03;94583.63;;;24.79;61.96
6435;BME280;3250;42.694;23.278;2023-06-14T11:37:30;94527.94;;;24.44;61.86
6435;BME280;3250;42.694;23.278;2023-06-14T11:39:58;94512.16;;;24.29;62.07
6435;BME280;3250;42.694;23.278;2023-06-14T11:42:26;94566.31;;;24.72;62.91
6435;BME280;3250;42.694;23.278;2023-06-14T11:44:53;94557.56;;;24.89;63.36
6435;BME280;3250;42.694;23.278;2023-06-14T11:47:19;94507.13;;;24.80;63.26
6435;BME280;3250;42.694;23.278;2023-06-14T11:49:46;94494.81;;;24.88;62.78
6435;BME280;3250;42.694;23.278;2023-06-14T11:52:14;94548.41;;;25.21;61.30
6435;BME280;3250;42.694;23.278;2023-06-14T11:54:40;94497.63;;;24.83;62.71
6435;BME280;3250;42.694;23.278;2023-06-14T11:57:09;94520.03;;;24.92;62.13
6435;BME280;3250;42.694;23.278;2023-06-14T11:59:39;94533.63;;;25.18;61.26
6435;BME280;3250;42.694;23.278;2023-06-14T12:02:05;94498.31;;;24.89;59.52
6435;BME280;3250;42.694;23.278;2023-06-14T12:04:31;94537.34;;;25.00;60.04
6435;BME280;3250;42.694;23.278;2023-06-14T12:07:16;94528.47;;;24.77;61.82
6435;BME280;3250;42.694;23.278;2023-06-14T12:12:28;94513.16;;;24.86;64.58
6435;BME280;3250;42.694;23.278;2023-06-14T12:14:55;94517.28;;;25.06;62.08
6435;BME280;3250;42.694;23.278;2023-06-14T12:17:21;94529.31;;;25.08;60.73
6435;BME280;3250;42.694;23.278;2023-06-14T12:19:48;94515.41;;;25.15;60.98
6435;BME280;3250;42.694;23.278;2023-06-14T12:22:16;94520.38;;;25.30;59.51
6435;BME280;3250;42.694;23.278;2023-06-14T12:24:45;94505.91;;;25.17;61.77
6435;BME280;3250;42.694;23.278;2023-06-14T12:27:11;94513.75;;;25.36;63.29
6435;BME280;3250;42.694;23.278;2023-06-14T12:29:41;94480.91;;;25.34;63.87
6435;BME280;3250;42.694;23.278;2023-06-14T12:32:09;94452.69;;;25.32;60.21
6435;BME280;3250;42.694;23.278;2023-06-14T12:34:34;94453.34;;;25.37;59.97
6435;BME280;3250;42.694;23.278;2023-06-14T12:37:01;94503.72;;;25.68;59.93
6435;BME280;3250;42.694;23.278;2023-06-14T12:39:26;94463.03;;;25.47;59.56
6435;BME280;3250;42.694;23.278;2023-06-14T12:41:51;94464.56;;;25.22;60.77
6435;BME280;3250;42.694;23.278;2023-06-14T12:44:17;94462.94;;;25.12;60.49
6435;BME280;3250;42.694;23.278;2023-06-14T12:46:42;94488.97;;;25.26;59.48
6435;BME280;3250;42.694;23.278;2023-06-14T12:49:10;94458.63;;;25.03;59.47
6435;BME280;3250;42.694;23.278;2023-06-14T12:51:36;94453.94;;;24.86;60.47
6435;BME280;3250;42.694;23.278;2023-06-14T12:54:02;94488.63;;;25.18;61.80
6435;BME280;3250;42.694;23.278;2023-06-14T12:56:27;94479.53;;;24.97;59.37
6435;BME280;3250;42.694;23.278;2023-06-14T12:58:53;94434.41;;;24.80;60.60
6435;BME280;3250;42.694;23.278;2023-06-14T13:01:19;94443.81;;;24.92;60.97
6435;BME280;3250;42.694;23.278;2023-06-14T13:03:46;94424.06;;;24.74;59.50
6435;BME280;3250;42.694;23.278;2023-06-14T13:06:11;94468.69;;;24.89;61.28
6435;BME280;3250;42.694;23.278;2023-06-14T13:08:37;94426.97;;;24.47;60.59
6435;BME280;3250;42.694;23.278;2023-06-14T13:11:02;94453.19;;;24.63;60.60
6435;BME280;3250;42.694;23.278;2023-06-14T13:13:27;94470.13;;;24.64;61.52
6435;BME280;3250;42.694;23.278;2023-06-14T13:15:53;94480.06;;;24.55;62.62
6435;BME280;3250;42.694;23.278;2023-06-14T13:18:18;94436.97;;;24.10;65.26
6435;BME280;3250;42.694;23.278;2023-06-14T13:20:45;94487.22;;;24.37;65.34
6435;BME280;3250;42.694;23.278;2023-06-14T13:23:11;94468.03;;;24.16;65.92
6435;BME280;3250;42.694;23.278;2023-06-14T13:25:37;94460.94;;;23.98;65.94
6435;BME280;3250;42.694;23.278;2023-06-14T13:28:05;94472.34;;;23.81;66.93